createdAt,value
2024-04-04T00:01:32.070Z,82.88
2024-04-04T00:03:59.221Z,83.13
2024-04-04T00:06:26.368Z,83.19
2024-04-04T00:08:53.612Z,83.19
2024-04-04T00:11:20.758Z,83.60
2024-04-04T00:13:47.926Z,83.89
2024-04-04T00:16:15.577Z,84.13
2024-04-04T00:18:43.643Z,84.42
2024-04-04T00:21:10.786Z,84.44
2024-04-04T00:23:37.941Z,84.32
2024-04-04T00:26:05.609Z,84.39
2024-04-04T00:28:33.771Z,84.35
2024-04-04T00:31:01.131Z,84.02
2024-04-04T00:33:28.889Z,83.69
2024-04-04T00:35:56.037Z,83.38
2024-04-04T00:38:23.597Z,82.78
2024-04-04T00:40:50.642Z,82.13
2024-04-04T00:43:17.801Z,82.37
2024-04-04T00:45:44.836Z,82.76
2024-04-04T00:48:12.193Z,83.16
2024-04-04T00:50:39.960Z,83.11
2024-04-04T00:53:07.206Z,83.28
2024-04-04T00:55:34.252Z,83.29
2024-04-04T00:58:01.397Z,83.46
2024-04-04T01:00:30.389Z,83.73
2024-04-04T01:02:57.539Z,84.07
2024-04-04T01:05:24.585Z,84.56
2024-04-04T01:07:51.836Z,84.81
2024-04-04T01:10:20.454Z,85.13
2024-04-04T01:12:47.695Z,85.20
2024-04-04T01:15:14.919Z,85.35
2024-04-04T01:17:41.968Z,84.75
2024-04-04T01:20:09.425Z,84.16
2024-04-04T01:22:36.573Z,83.43
2024-04-04T01:25:03.839Z,83.18
2024-04-04T01:27:31.076Z,83.29
2024-04-04T01:29:58.324Z,83.23
2024-04-04T01:32:25.375Z,83.34
2024-04-04T01:34:52.417Z,83.33
2024-04-04T01:37:19.568Z,83.05
2024-04-04T01:39:46.614Z,83.20
2024-04-04T01:42:13.659Z,83.25
2024-04-04T01:44:40.717Z,82.74
2024-04-04T01:47:07.755Z,82.64
2024-04-04T01:49:34.802Z,82.23
2024-04-04T01:52:01.846Z,81.72
2024-04-04T01:54:29.607Z,81.65
2024-04-04T01:56:56.660Z,81.62
2024-04-04T01:59:23.701Z,81.72
2024-04-04T02:01:50.756Z,81.64
2024-04-04T02:04:17.791Z,81.83
2024-04-04T02:06:44.845Z,81.99
2024-04-04T02:09:11.986Z,82.34
2024-04-04T02:11:39.033Z,82.56
2024-04-04T02:14:06.708Z,82.80
2024-04-04T02:16:33.845Z,83.04
2024-04-04T02:19:01.089Z,83.22
2024-04-04T02:21:28.349Z,83.30
2024-04-04T02:23:55.397Z,83.44
2024-04-04T02:26:22.543Z,83.49
2024-04-04T02:28:50.201Z,83.55
2024-04-04T02:31:17.247Z,83.28
2024-04-04T02:33:44.392Z,83.17
2024-04-04T02:36:11.542Z,83.22
2024-04-04T02:38:38.696Z,83.17
2024-04-04T02:41:05.840Z,83.21
2024-04-04T02:43:33.100Z,83.00
2024-04-04T02:46:04.060Z,83.14
2024-04-04T02:48:31.284Z,83.00
2024-04-04T02:50:58.739Z,82.43
2024-04-04T02:53:26.192Z,81.57
2024-04-04T02:55:56.840Z,80.86
2024-04-04T02:58:24.581Z,80.43
2024-04-04T03:00:52.044Z,80.31
2024-04-04T03:03:19.187Z,80.03
2024-04-04T03:05:46.980Z,79.92
2024-04-04T03:08:17.078Z,79.49
2024-04-04T03:10:44.321Z,79.47
2024-04-04T03:13:11.476Z,79.54
2024-04-04T03:15:38.829Z,78.93
2024-04-04T03:18:06.277Z,78.88
2024-04-04T03:20:33.528Z,78.98
2024-04-04T03:23:00.677Z,78.94
2024-04-04T03:25:27.724Z,78.85
2024-04-04T03:27:54.734Z,78.75
2024-04-04T03:30:22.733Z,78.83
2024-04-04T03:32:49.783Z,78.92
2024-04-04T03:35:16.837Z,79.05
2024-04-04T03:37:43.978Z,79.13
2024-04-04T03:40:11.332Z,79.23
2024-04-04T03:42:38.388Z,79.26
2024-04-04T03:45:06.037Z,79.03
2024-04-04T03:47:35.661Z,79.02
2024-04-04T03:50:03.611Z,78.97
2024-04-04T03:52:30.868Z,79.12
2024-04-04T03:54:58.890Z,79.07
2024-04-04T03:57:25.984Z,79.06
2024-04-04T03:59:54.775Z,79.10
2024-04-04T04:02:22.023Z,79.25
2024-04-04T04:04:49.164Z,79.18
2024-04-04T04:07:16.415Z,79.03
2024-04-04T04:09:43.470Z,78.98
2024-04-04T04:12:10.610Z,78.94
2024-04-04T04:14:37.868Z,78.87
2024-04-04T04:17:05.216Z,78.74
2024-04-04T04:19:32.266Z,78.66
2024-04-04T04:21:59.660Z,78.76
2024-04-04T04:24:26.868Z,78.80
2024-04-04T04:26:54.530Z,78.86
2024-04-04T04:29:21.574Z,78.96
2024-04-04T04:31:49.030Z,78.77
2024-04-04T04:34:16.074Z,78.85
2024-04-04T04:36:56.156Z,78.61
2024-04-04T04:39:23.400Z,78.59
2024-04-04T04:41:50.536Z,78.63
2024-04-04T04:44:17.569Z,78.28
2024-04-04T04:46:44.821Z,78.41
2024-04-04T04:49:12.487Z,78.60
2024-04-04T04:51:39.529Z,78.82
2024-04-04T04:54:06.883Z,78.92
2024-04-04T04:56:35.361Z,79.04
2024-04-04T04:59:02.489Z,79.21
2024-04-04T05:01:29.768Z,79.24
2024-04-04T05:03:56.977Z,79.29
2024-04-04T05:06:24.471Z,79.28
2024-04-04T05:08:52.232Z,79.20
2024-04-04T05:11:19.690Z,79.30
2024-04-04T05:13:46.838Z,79.24
2024-04-04T05:16:13.898Z,78.90
2024-04-04T05:18:40.926Z,78.98
2024-04-04T05:21:08.182Z,79.14
2024-04-04T05:23:35.364Z,78.76
2024-04-04T05:26:02.689Z,78.66
2024-04-04T05:28:31.470Z,78.37
2024-04-04T05:30:58.959Z,78.53
2024-04-04T05:33:26.284Z,78.58
2024-04-04T05:35:56.210Z,78.44
2024-04-04T05:38:23.346Z,77.89
2024-04-04T05:40:50.388Z,77.17
2024-04-04T05:43:17.432Z,77.49
2024-04-04T05:45:44.691Z,77.58
2024-04-04T05:48:11.830Z,77.41
2024-04-04T05:50:38.877Z,77.75
2024-04-04T05:53:06.230Z,77.90
2024-04-04T05:55:33.625Z,78.07
2024-04-04T05:58:00.656Z,78.07
2024-04-04T06:00:28.104Z,78.11
2024-04-04T06:02:55.244Z,78.04
2024-04-04T06:05:22.282Z,78.08
2024-04-04T06:07:49.331Z,77.91
2024-04-04T06:10:16.480Z,77.21
2024-04-04T06:12:43.627Z,77.24
2024-04-04T06:15:10.772Z,77.10
2024-04-04T06:17:38.224Z,76.43
2024-04-04T06:20:05.797Z,76.08
2024-04-04T06:22:33.106Z,75.68
2024-04-04T06:25:00.356Z,75.54
2024-04-04T06:27:27.641Z,74.61
2024-04-04T06:29:54.891Z,73.88
2024-04-04T06:32:21.945Z,72.94
2024-04-04T06:34:49.097Z,72.41
2024-04-04T06:37:18.188Z,71.98
2024-04-04T06:39:53.371Z,71.90
2024-04-04T06:42:23.544Z,71.46
2024-04-04T06:44:53.791Z,70.78
2024-04-04T06:47:23.076Z,70.24
2024-04-04T06:49:51.583Z,69.84
2024-04-04T06:52:18.694Z,69.31
2024-04-04T06:54:45.832Z,68.82
2024-04-04T06:57:12.988Z,68.68
2024-04-04T06:59:41.168Z,68.92
2024-04-04T07:02:09.649Z,68.69
2024-04-04T07:04:37.105Z,68.15
2024-04-04T07:07:04.655Z,67.52
2024-04-04T07:09:31.805Z,67.30
2024-04-04T07:11:58.847Z,67.18
2024-04-04T07:14:27.741Z,67.64
2024-04-04T07:16:54.894Z,67.46
2024-04-04T07:19:22.031Z,67.25
2024-04-04T07:21:50.413Z,66.32
2024-04-04T07:24:17.661Z,65.97
2024-04-04T07:26:49.801Z,65.90
2024-04-04T07:29:17.089Z,65.55
2024-04-04T07:31:44.230Z,64.70
2024-04-04T07:34:11.264Z,65.12
2024-04-04T07:36:38.524Z,64.81
2024-04-04T07:39:05.936Z,64.64
2024-04-04T07:41:33.024Z,64.35
2024-04-04T07:44:00.796Z,64.01
2024-04-04T07:46:27.941Z,63.49
2024-04-04T07:48:55.195Z,62.82
2024-04-04T07:51:22.757Z,63.06
2024-04-04T07:53:50.314Z,63.36
2024-04-04T07:56:17.669Z,62.77
2024-04-04T07:58:46.167Z,62.55
2024-04-04T08:01:13.700Z,62.41
2024-04-04T08:03:41.054Z,62.76
2024-04-04T08:06:08.305Z,62.60
2024-04-04T08:08:35.554Z,61.94
2024-04-04T08:11:02.804Z,61.13
2024-04-04T08:13:30.158Z,60.91
2024-04-04T08:15:57.268Z,61.17
2024-04-04T08:18:25.777Z,61.80
2024-04-04T08:20:53.495Z,61.57
2024-04-04T08:23:21.315Z,61.25
2024-04-04T08:25:55.034Z,61.72
2024-04-04T08:28:22.267Z,61.94
2024-04-04T08:30:58.736Z,61.50
2024-04-04T08:33:26.009Z,61.51
2024-04-04T08:35:53.544Z,61.86
2024-04-04T08:38:20.946Z,61.79
2024-04-04T08:40:50.926Z,61.09
2024-04-04T08:43:18.027Z,60.97
2024-04-04T08:45:48.572Z,61.28
2024-04-04T08:48:16.163Z,61.57
2024-04-04T08:50:50.065Z,61.50
2024-04-04T08:53:20.260Z,62.26
2024-04-04T08:55:47.630Z,62.37
2024-04-04T08:58:14.979Z,62.25
2024-04-04T09:00:43.051Z,61.78
2024-04-04T09:03:11.739Z,61.18
2024-04-04T09:05:49.636Z,60.41
2024-04-04T09:08:16.994Z,59.38
2024-04-04T09:10:46.722Z,58.81
2024-04-04T09:13:15.207Z,58.13
2024-04-04T09:15:42.548Z,57.30
2024-04-04T09:18:10.452Z,56.51
2024-04-04T09:20:38.165Z,56.21
2024-04-04T09:23:05.754Z,56.05
2024-04-04T09:25:32.871Z,55.45
2024-04-04T09:28:00.424Z,54.75
2024-04-04T09:30:34.404Z,54.40
2024-04-04T09:33:01.598Z,54.33
2024-04-04T09:35:28.946Z,55.11
2024-04-04T09:37:56.257Z,55.83
2024-04-04T09:40:23.456Z,55.79
2024-04-04T09:42:50.632Z,54.94
2024-04-04T09:45:18.044Z,54.35
2024-04-04T09:47:48.471Z,53.25
2024-04-04T09:50:19.862Z,52.92
2024-04-04T09:52:47.580Z,53.62
2024-04-04T09:55:16.502Z,54.16
2024-04-04T09:57:43.739Z,53.54
2024-04-04T10:00:20.461Z,52.02
2024-04-04T10:02:47.903Z,52.47
2024-04-04T10:05:21.501Z,53.20
2024-04-04T10:07:51.680Z,54.17
2024-04-04T10:10:20.885Z,52.97
2024-04-04T10:12:54.260Z,52.64
2024-04-04T10:15:22.542Z,52.71
2024-04-04T10:17:50.197Z,53.66
2024-04-04T10:20:18.484Z,53.51
2024-04-04T10:22:46.394Z,53.81
2024-04-04T10:25:14.282Z,54.15
2024-04-04T10:27:42.584Z,54.55
2024-04-04T10:30:10.141Z,55.17
2024-04-04T10:32:37.549Z,54.75
2024-04-04T10:35:05.462Z,54.56
2024-04-04T10:37:33.331Z,54.23
2024-04-04T10:40:00.528Z,54.54
2024-04-04T10:42:27.619Z,54.98
2024-04-04T10:44:55.390Z,55.00
2024-04-04T10:47:22.681Z,55.70
2024-04-04T10:49:49.744Z,56.35
2024-04-04T10:52:17.111Z,56.96
2024-04-04T10:54:44.392Z,56.95
2024-04-04T10:57:11.848Z,56.68
2024-04-04T10:59:39.503Z,57.02
2024-04-04T11:02:11.577Z,57.17
2024-04-04T11:04:39.040Z,56.73
2024-04-04T11:07:06.489Z,56.23
2024-04-04T11:09:33.627Z,55.29
2024-04-04T11:12:00.757Z,54.57
2024-04-04T11:14:28.190Z,54.07
2024-04-04T11:16:55.706Z,53.06
2024-04-04T11:19:26.017Z,52.35
2024-04-04T11:21:53.568Z,50.95
2024-04-04T11:24:21.332Z,51.25
2024-04-04T11:26:48.482Z,51.40
2024-04-04T11:29:16.244Z,51.67
2024-04-04T11:31:43.293Z,51.95
2024-04-04T11:34:10.453Z,52.53
2024-04-04T11:36:37.494Z,52.60
2024-04-04T11:39:04.593Z,53.51
2024-04-04T11:41:31.682Z,53.67
2024-04-04T11:43:58.847Z,54.82
2024-04-04T11:46:27.437Z,55.86
2024-04-04T11:48:55.827Z,56.58
2024-04-04T11:51:22.788Z,57.13
2024-04-04T11:53:49.777Z,57.37
2024-04-04T11:56:17.858Z,57.77
2024-04-04T11:58:44.736Z,56.78
2024-04-04T12:01:13.744Z,55.81
2024-04-04T12:03:40.846Z,54.26
2024-04-04T12:06:07.784Z,52.50
2024-04-04T12:08:34.766Z,49.38
2024-04-04T12:11:04.443Z,46.63
2024-04-04T12:13:31.829Z,45.53
2024-04-04T12:16:00.366Z,44.53
2024-04-04T12:18:46.155Z,43.24
2024-04-04T12:21:17.509Z,41.52
2024-04-04T12:23:52.987Z,40.14
2024-04-04T12:26:23.758Z,39.17
2024-04-04T12:28:54.436Z,38.60
2024-04-04T12:31:21.552Z,38.48
2024-04-04T12:33:48.499Z,38.70
2024-04-04T12:36:15.541Z,39.78
2024-04-04T12:38:42.383Z,40.44
2024-04-04T12:41:09.222Z,40.98
2024-04-04T12:43:36.166Z,42.45
2024-04-04T12:46:04.936Z,43.45
2024-04-04T12:48:32.537Z,44.37
2024-04-04T12:50:59.865Z,45.01
2024-04-04T12:53:27.006Z,45.89
2024-04-04T12:55:54.334Z,46.30
2024-04-04T12:58:21.211Z,46.04
2024-04-04T13:00:49.205Z,44.99
2024-04-04T13:03:16.897Z,43.37
2024-04-04T13:05:43.888Z,42.23
2024-04-04T13:08:10.832Z,41.53
2024-04-04T13:10:37.776Z,41.71
2024-04-04T13:13:06.066Z,42.32
2024-04-04T13:15:32.995Z,42.94
2024-04-04T13:17:59.880Z,42.53
2024-04-04T13:20:26.992Z,41.06
2024-04-04T13:22:53.936Z,40.60
2024-04-04T13:25:20.898Z,40.39
2024-04-04T13:27:48.024Z,41.03
2024-04-04T13:30:14.821Z,40.26
2024-04-04T13:32:41.811Z,38.93
2024-04-04T13:35:08.754Z,38.30
2024-04-04T13:37:35.750Z,37.58
2024-04-04T13:40:04.381Z,36.78
2024-04-04T13:42:31.836Z,35.94
2024-04-04T13:44:58.780Z,35.08
2024-04-04T13:47:27.156Z,35.34
2024-04-04T13:49:53.944Z,36.11
2024-04-04T13:52:20.926Z,36.52
2024-04-04T13:54:48.106Z,36.88
2024-04-04T13:57:15.245Z,37.06
2024-04-04T13:59:42.182Z,37.31
2024-04-04T14:02:10.150Z,37.84
2024-04-04T14:04:37.343Z,38.68
2024-04-04T14:07:09.727Z,38.97
2024-04-04T14:09:38.590Z,40.31
2024-04-04T14:12:06.497Z,41.25
2024-04-04T14:14:33.472Z,41.74
2024-04-04T14:17:02.513Z,42.56
2024-04-04T14:19:29.815Z,43.64
2024-04-04T14:21:58.130Z,44.53
2024-04-04T14:24:25.175Z,45.12
2024-04-04T14:26:52.181Z,45.44
2024-04-04T14:29:19.210Z,46.08
2024-04-04T14:31:47.647Z,46.47
2024-04-04T14:34:14.714Z,47.08
2024-04-04T14:36:42.009Z,47.55
2024-04-04T14:39:09.262Z,48.14
2024-04-04T14:41:36.982Z,48.25
2024-04-04T14:44:04.130Z,48.63
2024-04-04T14:46:31.432Z,49.12
2024-04-04T14:48:59.329Z,49.50
2024-04-04T14:51:26.332Z,49.92
2024-04-04T14:53:53.689Z,50.19
2024-04-04T14:56:20.536Z,50.29
2024-04-04T14:58:47.895Z,50.34
2024-04-04T15:01:14.990Z,50.91
2024-04-04T15:03:42.398Z,50.82
2024-04-04T15:06:09.916Z,50.94
2024-04-04T15:08:37.483Z,51.20
2024-04-04T15:11:05.888Z,51.59
2024-04-04T15:13:32.662Z,51.59
2024-04-04T15:15:59.575Z,52.13
2024-04-04T15:18:26.507Z,52.36
2024-04-04T15:20:53.452Z,52.24
2024-04-04T15:23:20.500Z,52.13
2024-04-04T15:25:47.646Z,51.91
2024-04-04T15:28:14.829Z,51.67
2024-04-04T15:30:43.241Z,51.40
2024-04-04T15:33:10.533Z,51.16
2024-04-04T15:35:39.936Z,51.43
2024-04-04T15:38:06.870Z,51.64
2024-04-04T15:40:33.922Z,51.92
2024-04-04T15:43:03.975Z,52.14
2024-04-04T15:45:32.820Z,52.53
2024-04-04T15:47:59.809Z,52.81
2024-04-04T15:50:26.915Z,53.29
2024-04-04T15:52:54.471Z,53.85
2024-04-04T15:55:21.773Z,54.40
2024-04-04T15:57:48.883Z,54.91
2024-04-04T16:00:16.023Z,55.33
2024-04-04T16:02:44.215Z,55.88
2024-04-04T16:05:11.968Z,56.34
2024-04-04T16:07:38.903Z,56.71
2024-04-04T16:10:06.149Z,57.21
2024-04-04T16:12:33.196Z,57.81
2024-04-04T16:15:00.241Z,57.91
2024-04-04T16:17:27.558Z,58.19
2024-04-04T16:19:54.544Z,58.53
2024-04-04T16:22:21.492Z,59.01
2024-04-04T16:24:48.429Z,59.36
2024-04-04T16:27:15.373Z,59.72
2024-04-04T16:29:42.319Z,60.17
2024-04-04T16:32:09.469Z,60.49
2024-04-04T16:34:38.047Z,60.67
2024-04-04T16:37:05.115Z,60.93
2024-04-04T16:39:32.042Z,61.42
2024-04-04T16:42:00.009Z,62.01
2024-04-04T16:44:26.963Z,62.55
2024-04-04T16:46:54.302Z,62.86
2024-04-04T16:49:21.370Z,63.12
2024-04-04T16:51:48.713Z,63.36
2024-04-04T16:54:15.645Z,63.59
2024-04-04T16:56:42.837Z,63.96
2024-04-04T16:59:12.716Z,64.55
2024-04-04T17:01:40.061Z,64.95
2024-04-04T17:04:07.007Z,65.60
2024-04-04T17:06:34.052Z,66.14
2024-04-04T17:09:00.995Z,66.66
2024-04-04T17:11:28.202Z,67.67
2024-04-04T17:13:57.658Z,68.26
2024-04-04T17:16:24.615Z,68.78
2024-04-04T17:18:52.152Z,69.33
2024-04-04T17:21:19.299Z,70.34
2024-04-04T17:23:46.345Z,70.88
2024-04-04T17:26:15.142Z,70.84
2024-04-04T17:28:42.384Z,70.91
2024-04-04T17:31:09.430Z,71.39
2024-04-04T17:33:36.690Z,71.86
2024-04-04T17:36:03.740Z,72.18
2024-04-04T17:38:30.877Z,72.84
2024-04-04T17:40:59.044Z,73.65
2024-04-04T17:43:26.848Z,74.27
2024-04-04T17:45:53.866Z,75.11
2024-04-04T17:48:21.229Z,75.65
2024-04-04T17:50:48.271Z,76.03
2024-04-04T17:53:18.371Z,76.44
2024-04-04T17:55:46.870Z,77.11
2024-04-04T17:58:14.013Z,77.41
2024-04-04T18:00:41.079Z,77.75
2024-04-04T18:03:08.811Z,78.41
2024-04-04T18:05:36.265Z,79.24
2024-04-04T18:08:04.335Z,79.90
2024-04-04T18:10:33.853Z,80.42
2024-04-04T18:13:04.474Z,80.73
2024-04-04T18:15:31.516Z,80.93
2024-04-04T18:17:58.566Z,81.08
2024-04-04T18:20:26.578Z,81.50
2024-04-04T18:22:53.475Z,81.81
2024-04-04T18:25:20.569Z,82.16
2024-04-04T18:27:47.512Z,82.52
2024-04-04T18:30:16.361Z,82.90
2024-04-04T18:32:43.502Z,83.29
2024-04-04T18:35:10.552Z,83.56
2024-04-04T18:37:37.570Z,83.82
2024-04-04T18:40:06.587Z,83.77
2024-04-04T18:42:33.736Z,83.85
2024-04-04T18:45:02.531Z,83.92
2024-04-04T18:47:30.292Z,84.12
2024-04-04T18:50:02.395Z,84.49
2024-04-04T18:53:01.998Z,85.00
2024-04-04T18:55:36.498Z,85.44
2024-04-04T18:58:11.777Z,85.69
2024-04-04T19:00:39.291Z,85.85
2024-04-04T19:03:06.836Z,85.97
2024-04-04T19:05:33.797Z,86.05
2024-04-04T19:08:00.833Z,86.05
2024-04-04T19:10:29.395Z,86.15
2024-04-04T19:12:56.580Z,86.32
2024-04-04T19:15:23.705Z,86.34
2024-04-04T19:17:50.548Z,86.43
2024-04-04T19:20:21.610Z,86.73
2024-04-04T19:22:51.306Z,87.13
2024-04-04T19:25:20.808Z,87.72
2024-04-04T19:27:47.743Z,88.31
2024-04-04T19:30:14.792Z,88.84
2024-04-04T19:32:41.840Z,89.08
2024-04-04T19:35:08.992Z,89.29
2024-04-04T19:37:35.931Z,89.48
2024-04-04T19:40:03.080Z,89.83
2024-04-04T19:42:33.872Z,90.27
2024-04-04T19:45:01.194Z,90.84
2024-04-04T19:47:28.216Z,91.21
2024-04-04T19:49:55.170Z,91.74
2024-04-04T19:52:22.503Z,92.01
2024-04-04T19:54:49.451Z,92.05
2024-04-04T19:57:16.395Z,92.15
2024-04-04T19:59:43.437Z,92.29
2024-04-04T20:02:10.326Z,92.39
2024-04-04T20:04:37.329Z,92.33
2024-04-04T20:07:04.373Z,92.28
2024-04-04T20:09:31.316Z,92.22
2024-04-04T20:11:58.362Z,92.19
2024-04-04T20:14:26.332Z,92.26
2024-04-04T20:16:53.276Z,92.40
2024-04-04T20:19:20.241Z,92.53
2024-04-04T20:21:47.173Z,92.54
2024-04-04T20:24:14.108Z,92.99
2024-04-04T20:26:41.253Z,93.08
2024-04-04T20:29:08.304Z,93.08
2024-04-04T20:31:37.497Z,93.09
2024-04-04T20:34:04.449Z,93.41
2024-04-04T20:36:31.591Z,93.45
2024-04-04T20:38:58.533Z,93.37
2024-04-04T20:41:25.477Z,93.38
2024-04-04T20:43:52.528Z,93.42
2024-04-04T20:46:20.093Z,93.67
2024-04-04T20:48:47.023Z,93.65
2024-04-04T20:51:13.969Z,93.58
2024-04-04T20:53:40.915Z,93.79
2024-04-04T20:56:07.960Z,93.89
2024-04-04T20:58:34.976Z,93.99
2024-04-04T21:01:01.957Z,93.99
2024-04-04T21:03:29.609Z,94.10
2024-04-04T21:05:56.554Z,94.32
2024-04-04T21:08:23.495Z,94.34
2024-04-04T21:10:50.441Z,94.45
2024-04-04T21:13:17.381Z,94.70
2024-04-04T21:15:47.411Z,94.80
2024-04-04T21:18:14.347Z,95.00
2024-04-04T21:20:42.746Z,94.90
2024-04-04T21:23:09.663Z,94.96
2024-04-04T21:25:36.576Z,95.07
2024-04-04T21:28:04.174Z,95.10
2024-04-04T21:30:32.040Z,95.16
2024-04-04T21:32:58.983Z,95.14
2024-04-04T21:35:25.920Z,95.24
2024-04-04T21:37:52.864Z,95.14
2024-04-04T21:40:20.022Z,94.78
2024-04-04T21:42:46.960Z,94.76
2024-04-04T21:45:13.807Z,94.97
2024-04-04T21:47:40.950Z,95.00
2024-04-04T21:50:07.999Z,95.09
2024-04-04T21:52:35.060Z,94.91
2024-04-04T21:55:02.115Z,94.65
2024-04-04T21:57:29.545Z,94.73
2024-04-04T21:59:57.007Z,94.61
2024-04-04T22:02:24.051Z,94.72
2024-04-04T22:04:51.507Z,94.85
2024-04-04T22:07:18.550Z,95.25
2024-04-04T22:09:45.493Z,95.24
2024-04-04T22:12:12.355Z,95.41
2024-04-04T22:14:39.793Z,95.89
2024-04-04T22:17:06.648Z,96.16
2024-04-04T22:19:33.801Z,96.50
2024-04-04T22:22:02.780Z,96.67
2024-04-04T22:24:29.820Z,96.71
2024-04-04T22:26:56.659Z,96.92
2024-04-04T22:29:23.500Z,97.06
2024-04-04T22:31:50.341Z,97.01
2024-04-04T22:34:17.185Z,97.09
2024-04-04T22:36:44.844Z,96.89
2024-04-04T22:39:14.548Z,97.07
2024-04-04T22:41:41.496Z,96.87
2024-04-04T22:44:08.342Z,96.96
2024-04-04T22:46:35.422Z,96.74
2024-04-04T22:49:02.425Z,96.91
2024-04-04T22:51:32.031Z,96.93
2024-04-04T22:53:58.980Z,97.14
2024-04-04T22:56:25.920Z,97.24
2024-04-04T22:58:53.586Z,97.43
2024-04-04T23:01:20.524Z,97.70
2024-04-04T23:03:50.336Z,97.77
2024-04-04T23:06:17.290Z,98.14
2024-04-04T23:08:44.223Z,98.33
2024-04-04T23:11:11.476Z,98.50
2024-04-04T23:13:38.625Z,98.72
2024-04-04T23:16:05.986Z,99.05
2024-04-04T23:18:33.329Z,99.45
2024-04-04T23:21:00.168Z,99.43
2024-04-04T23:23:27.114Z,99.73
2024-04-04T23:25:54.877Z,99.95
2024-04-04T23:28:21.823Z,100.00
2024-04-04T23:30:49.072Z,100.00
2024-04-04T23:33:15.917Z,100.00
2024-04-04T23:35:43.583Z,100.00
2024-04-04T23:38:10.554Z,100.00
2024-04-04T23:40:40.534Z,100.00
2024-04-04T23:43:07.999Z,100.00
2024-04-04T23:45:34.834Z,100.00
2024-04-04T23:48:01.781Z,100.00
2024-04-04T23:50:28.734Z,100.00
2024-04-04T23:52:55.663Z,100.00
2024-04-04T23:55:25.027Z,100.00
2024-04-04T23:57:52.108Z,100.00
